Weather observations for the past three days for
St. Johnsbury - Fairbanks
Imperial (Metric)
Date Time (edt) Wind (mph) Vis. (mi.) Weather Sky Cond. Temperature (ºF) Relative Humidity Wind Chill (°F) Heat Index (°F) Pressure Precipitation (in)
Air Dwpt 6 hour altimeter (in) sea level (mb) 1 hr 3 hr 6 hr
Max. Min.
02 14:54 Calm 0.00 NULL NULL 46 39.9 79% 29.83 1010.8 0.06
02 13:54 Calm 0.00 NULL NULL 48 39 48 37.9 71% 29.82 1010.4
02 12:54 Calm 0.00 NULL NULL 46 39 77% 29.83 1010.7
02 11:54 Calm 0.00 NULL NULL 44.1 39 83% 29.85 1011.3
02 10:54 Calm 0.00 NULL NULL 42.1 37 82% 29.86 1011.6
02 09:54 Calm 0.00 NULL NULL 41 36 82% 29.86 1011.8
02 08:54 Calm 0.00 NULL NULL 39 35.1 86% 29.87 1012.0
02 07:54 Calm 0.00 NULL NULL 37.9 34 37.9 35.1 86% 29.88 1012.2 0.01 0.04
02 06:54 Calm 0.00 NULL NULL 37 33.1 86% 29.88 1012.1 0.03
02 05:54 Calm 0.00 NULL NULL 37 30.9 79% 29.88 1011.9
02 04:54 Calm 0.00 NULL NULL 37 30.9 79% 29.87 1011.8
02 03:54 Calm 0.00 NULL NULL 36 28.9 76% 29.88 1012.0
02 02:54 Calm 0.00 NULL NULL 35.1 28.9 78% 29.86 1011.4
02 01:54 Calm 0.00 NULL NULL 35.1 28.9 51.1 35.1 78% 29.86 1011.4
02 00:54 Calm 0.00 NULL NULL 36 28.9 76% 29.86 1011.6
01 23:54 Calm 0.00 NULL NULL 37.9 30 73% 29.86 1011.3
01 22:54 Calm 0.00 NULL NULL 39.9 30 68% 29.85 1011.2
01 21:54 Calm 0.00 NULL NULL 43 30 60% 29.86 1011.4
01 20:54 Calm 0.00 NULL NULL 46 28 50% 29.84 1010.9
01 19:54 Calm 0.00 NULL NULL 51.1 24.1 57 51.1 35% 29.82 1010.0
01 18:54 Calm 0.00 NULL NULL 53.1 23 31% 29.81 1009.6
01 17:54 Calm 0.00 NULL NULL 54 21 28% 29.8 1009.3
01 16:54 Calm 0.00 NULL NULL 57 21.9 26% 29.79 1008.9
01 15:54 Calm 0.00 NULL NULL 55.9 21 26% 29.79 1009.0
01 14:54 Calm 0.00 NULL NULL 55.9 24.1 29% 29.8 1009.2
01 13:54 Calm 0.00 NULL NULL 54 27 54 43 35% 29.8 1009.2
01 12:54 Calm 0.00 NULL NULL 52 27 38% 29.81 1009.5
01 11:54 Calm 0.00 NULL NULL 48.9 27 43% 29.82 1009.9
01 10:54 Calm 0.00 NULL NULL 46.9 28 48% 29.82 1010.2
01 09:54 Calm 0.00 NULL NULL 46 30 54% 29.82 1010.1
01 08:54 Calm 0.00 NULL NULL 44.1 28 53% 29.82 1010.0
01 07:54 Calm 0.00 NULL NULL 44.1 34 45 39.9 68% 29.82 1010.0
01 06:54 Calm 0.00 NULL NULL 41 36 82% 29.81 1009.8
01 05:54 Calm 0.00 NULL NULL 39.9 36 86% 29.79 1009.3
01 04:54 Calm 0.00 NULL NULL 42.1 36 79% 29.78 1008.7
01 03:54 Calm 0.00 NULL NULL 43 36 76% 29.77 1008.3
01 02:54 Calm 0.00 NULL NULL 43 37 80% 29.77 1008.2
01 01:54 Calm 0.00 NULL NULL 44.1 37.9 48.9 44.1 79% 29.76 1008.1
01 00:54 Calm 0.00 NULL NULL 45 37.9 77% 29.76 1008.1
30 23:54 Calm 0.00 NULL NULL 45 37 74% 29.77 1008.2
30 22:54 Calm 0.00 NULL NULL 45 37 74% 29.77 1008.4
30 21:54 Calm 0.00 NULL NULL 46 39 77% 29.77 1008.5
30 20:54 Calm 0.00 NULL NULL 46.9 39.9 77% 29.75 1007.7
30 19:54 Calm 0.00 NULL NULL 48.9 43 50 48.9 80% 29.72 1006.5 0.09
30 18:54 Calm 0.00 NULL NULL 50 46 86% 29.7 1005.8 0.03
30 17:54 Calm 0.00 NULL NULL 48.9 46 90% 29.68 1005.2 0.03
30 16:54 Calm 0.00 NULL NULL 50 46 86% 29.68 1005.0 0.02 0.03
30 15:54 Calm 0.00 NULL NULL 48.9 45 86% 29.68 1005.2
30 14:54 Calm 0.00 NULL NULL 50 45 83% 29.69 1005.5 0.01
30 13:54 Calm 0.00 NULL NULL 50 45 50 46 83% 29.7 1005.6 0.03 0.08
30 12:54 Calm 0.00 NULL NULL 48.9 44.1 83% 29.7 1005.6
30 11:54 Calm 0.00 NULL NULL 48.9 44.1 83% 29.69 1005.3
30 10:54 Calm 0.00 NULL NULL 48 44.1 86% 29.7 1005.8 0.05
30 09:54 Calm 0.00 NULL NULL 46.9 43 86% 29.7 1005.8 0.04
30 08:54 Calm 0.00 NULL NULL 46 43 89% 29.72 1006.1 0.01
30 07:54 Calm 0.00 NULL NULL 46 42.1 50 46 86% 29.72 1006.2 0.03 0.14
30 06:54 Calm 0.00 NULL NULL 46 42.1 86% 29.72 1006.2 0.04
30 05:54 Calm 0.00 NULL NULL 46 42.1 86% 29.72 1006.1 0.05
30 04:54 Calm 0.00 NULL NULL 46.9 42.1 83% 29.72 1006.0 0.02 0.02
30 03:54 Calm 0.00 NULL NULL 48 41 77% 29.72 1006.0
30 02:54 Calm 0.00 NULL NULL 48.9 41 74% 29.74 1006.6
30 01:54 Calm 0.00 NULL NULL 50 41 61 50 71% 29.75 1007.1
30 00:54 Calm 0.00 NULL NULL 52 42.1 69% 29.77 1007.6
29 23:54 Calm 0.00 NULL NULL 53.1 41 64% 29.77 1007.9
29 22:54 Calm 0.00 NULL NULL 55 41 59% 29.78 1008.1
29 21:54 Calm 0.00 NULL NULL 57 39.9 53% 29.8 1008.8
29 20:54 Calm 0.00 NULL NULL 59 37 44% 29.8 1008.8
29 19:54 Calm 0.00 NULL NULL 61 37 68 61 41% 29.79 1008.7
29 18:54 Calm 0.00 NULL NULL 63 36 37% 29.79 1008.8
29 17:54 Calm 0.00 NULL NULL 66 39 37% 29.8 1008.9
29 16:54 Calm 0.00 NULL NULL 64.9 39 39% 29.82 1009.6
29 15:54 Calm 0.00 NULL NULL 66.9 39 36% 29.82 1009.6
Date Time (edt) Wind (mph) Vis. (mi.) Weather Sky Cond. Air Dwpt Max. Min. Relative Humidity Wind Chill (°F) Heat Index (°F) altimeter (in) sea level (mb) 1 hr 3 hr 6 hr
6 hour
Temperature (ºF) Pressure Precipitation (in)